sensor_id;sensor_type;location;lat;lon;timestamp;P1;durP1;ratioP1;P2;durP2;ratioP2
35540;SDS011;21650;48.840;9.162;2023-04-24T00:01:40;0.70;;;0.50;;
35540;SDS011;21650;48.840;9.162;2023-04-24T00:04:06;2.57;;;0.83;;
35540;SDS011;21650;48.840;9.162;2023-04-24T00:06:32;4.73;;;0.80;;
35540;SDS011;21650;48.840;9.162;2023-04-24T00:08:59;4.27;;;1.00;;
35540;SDS011;21650;48.840;9.162;2023-04-24T00:11:26;2.77;;;0.63;;
35540;SDS011;21650;48.840;9.162;2023-04-24T00:13:52;1.27;;;0.70;;
35540;SDS011;21650;48.840;9.162;2023-04-24T00:16:18;4.20;;;0.60;;
35540;SDS011;21650;48.840;9.162;2023-04-24T00:18:44;1.23;;;0.63;;
35540;SDS011;21650;48.840;9.162;2023-04-24T00:21:13;0.50;;;0.50;;
35540;SDS011;21650;48.840;9.162;2023-04-24T00:23:42;0.40;;;0.40;;
35540;SDS011;21650;48.840;9.162;2023-04-24T00:26:08;2.33;;;0.70;;
35540;SDS011;21650;48.840;9.162;2023-04-24T00:28:34;1.60;;;0.70;;
35540;SDS011;21650;48.840;9.162;2023-04-24T00:31:00;1.07;;;0.80;;
35540;SDS011;21650;48.840;9.162;2023-04-24T00:33:26;1.20;;;0.50;;
35540;SDS011;21650;48.840;9.162;2023-04-24T00:35:51;2.00;;;0.90;;
35540;SDS011;21650;48.840;9.162;2023-04-24T00:38:17;1.00;;;0.60;;
35540;SDS011;21650;48.840;9.162;2023-04-24T00:40:43;0.50;;;0.50;;
35540;SDS011;21650;48.840;9.162;2023-04-24T00:43:09;1.47;;;0.60;;
35540;SDS011;21650;48.840;9.162;2023-04-24T00:45:34;2.10;;;0.60;;
35540;SDS011;21650;48.840;9.162;2023-04-24T00:48:01;1.30;;;0.50;;
35540;SDS011;21650;48.840;9.162;2023-04-24T00:50:27;0.90;;;0.50;;
35540;SDS011;21650;48.840;9.162;2023-04-24T00:52:53;0.40;;;0.40;;
35540;SDS011;21650;48.840;9.162;2023-04-24T00:55:19;0.80;;;0.50;;
35540;SDS011;21650;48.840;9.162;2023-04-24T00:57:45;1.27;;;0.50;;
35540;SDS011;21650;48.840;9.162;2023-04-24T01:00:11;1.53;;;0.60;;
35540;SDS011;21650;48.840;9.162;2023-04-24T01:02:39;0.70;;;0.50;;
35540;SDS011;21650;48.840;9.162;2023-04-24T01:05:08;1.03;;;0.50;;
35540;SDS011;21650;48.840;9.162;2023-04-24T01:07:34;2.60;;;0.60;;
35540;SDS011;21650;48.840;9.162;2023-04-24T01:10:01;0.57;;;0.50;;
35540;SDS011;21650;48.840;9.162;2023-04-24T01:12:27;0.87;;;0.50;;
35540;SDS011;21650;48.840;9.162;2023-04-24T01:14:53;0.93;;;0.50;;
35540;SDS011;21650;48.840;9.162;2023-04-24T01:17:19;0.87;;;0.50;;
35540;SDS011;21650;48.840;9.162;2023-04-24T01:19:45;0.73;;;0.53;;
35540;SDS011;21650;48.840;9.162;2023-04-24T01:22:12;1.23;;;0.60;;
35540;SDS011;21650;48.840;9.162;2023-04-24T01:24:39;3.47;;;0.50;;
35540;SDS011;21650;48.840;9.162;2023-04-24T01:27:06;1.93;;;0.40;;
35540;SDS011;21650;48.840;9.162;2023-04-24T01:29:32;1.13;;;0.57;;
35540;SDS011;21650;48.840;9.162;2023-04-24T01:31:57;1.40;;;0.60;;
35540;SDS011;21650;48.840;9.162;2023-04-24T01:34:23;1.97;;;0.63;;
35540;SDS011;21650;48.840;9.162;2023-04-24T01:36:49;1.37;;;0.70;;
35540;SDS011;21650;48.840;9.162;2023-04-24T01:39:15;1.63;;;0.53;;
35540;SDS011;21650;48.840;9.162;2023-04-24T01:41:41;0.77;;;0.43;;
35540;SDS011;21650;48.840;9.162;2023-04-24T01:44:07;0.70;;;0.70;;
35540;SDS011;21650;48.840;9.162;2023-04-24T01:46:33;0.97;;;0.50;;
35540;SDS011;21650;48.840;9.162;2023-04-24T01:49:00;1.00;;;0.50;;
35540;SDS011;21650;48.840;9.162;2023-04-24T01:51:26;2.30;;;0.40;;
35540;SDS011;21650;48.840;9.162;2023-04-24T01:53:52;0.83;;;0.57;;
35540;SDS011;21650;48.840;9.162;2023-04-24T01:56:19;0.67;;;0.53;;
35540;SDS011;21650;48.840;9.162;2023-04-24T01:58:45;1.43;;;0.50;;
35540;SDS011;21650;48.840;9.162;2023-04-24T02:01:15;0.60;;;0.50;;
35540;SDS011;21650;48.840;9.162;2023-04-24T02:03:43;0.87;;;0.50;;
35540;SDS011;21650;48.840;9.162;2023-04-24T02:06:09;1.30;;;0.60;;
35540;SDS011;21650;48.840;9.162;2023-04-24T02:08:35;3.53;;;0.60;;
35540;SDS011;21650;48.840;9.162;2023-04-24T02:11:00;0.33;;;0.33;;
35540;SDS011;21650;48.840;9.162;2023-04-24T02:13:27;0.43;;;0.43;;
35540;SDS011;21650;48.840;9.162;2023-04-24T02:15:52;1.20;;;0.63;;
35540;SDS011;21650;48.840;9.162;2023-04-24T02:18:18;1.03;;;0.70;;
35540;SDS011;21650;48.840;9.162;2023-04-24T02:20:43;3.10;;;0.70;;
35540;SDS011;21650;48.840;9.162;2023-04-24T02:23:09;1.77;;;0.70;;
35540;SDS011;21650;48.840;9.162;2023-04-24T02:25:35;0.53;;;0.40;;
35540;SDS011;21650;48.840;9.162;2023-04-24T02:28:00;0.50;;;0.50;;
35540;SDS011;21650;48.840;9.162;2023-04-24T02:30:26;2.50;;;0.67;;
35540;SDS011;21650;48.840;9.162;2023-04-24T02:32:52;1.47;;;0.67;;
35540;SDS011;21650;48.840;9.162;2023-04-24T02:35:17;1.40;;;0.50;;
35540;SDS011;21650;48.840;9.162;2023-04-24T02:37:43;1.73;;;0.90;;
35540;SDS011;21650;48.840;9.162;2023-04-24T02:40:08;2.13;;;0.57;;
35540;SDS011;21650;48.840;9.162;2023-04-24T02:42:34;0.63;;;0.50;;
35540;SDS011;21650;48.840;9.162;2023-04-24T02:45:00;1.20;;;0.70;;
35540;SDS011;21650;48.840;9.162;2023-04-24T02:47:25;1.20;;;0.50;;
35540;SDS011;21650;48.840;9.162;2023-04-24T02:49:51;1.20;;;0.50;;
35540;SDS011;21650;48.840;9.162;2023-04-24T02:52:17;1.47;;;0.73;;
35540;SDS011;21650;48.840;9.162;2023-04-24T02:54:42;2.13;;;0.93;;
35540;SDS011;21650;48.840;9.162;2023-04-24T02:57:08;0.50;;;0.50;;
35540;SDS011;21650;48.840;9.162;2023-04-24T02:59:34;1.50;;;1.03;;
35540;SDS011;21650;48.840;9.162;2023-04-24T03:02:00;0.87;;;0.60;;
35540;SDS011;21650;48.840;9.162;2023-04-24T03:04:25;1.10;;;0.60;;
35540;SDS011;21650;48.840;9.162;2023-04-24T03:06:51;0.83;;;0.63;;
35540;SDS011;21650;48.840;9.162;2023-04-24T03:09:19;2.63;;;0.77;;
35540;SDS011;21650;48.840;9.162;2023-04-24T03:11:45;1.17;;;0.70;;
35540;SDS011;21650;48.840;9.162;2023-04-24T03:14:11;1.23;;;0.50;;
35540;SDS011;21650;48.840;9.162;2023-04-24T03:16:37;1.00;;;0.60;;
35540;SDS011;21650;48.840;9.162;2023-04-24T03:19:02;0.87;;;0.77;;
35540;SDS011;21650;48.840;9.162;2023-04-24T03:21:28;0.80;;;0.80;;
35540;SDS011;21650;48.840;9.162;2023-04-24T03:23:53;1.53;;;0.70;;
35540;SDS011;21650;48.840;9.162;2023-04-24T03:26:19;2.20;;;0.97;;
35540;SDS011;21650;48.840;9.162;2023-04-24T03:28:45;3.13;;;0.93;;
35540;SDS011;21650;48.840;9.162;2023-04-24T03:31:11;3.17;;;1.63;;
35540;SDS011;21650;48.840;9.162;2023-04-24T03:33:36;1.90;;;0.70;;
35540;SDS011;21650;48.840;9.162;2023-04-24T03:36:02;2.77;;;1.07;;
35540;SDS011;21650;48.840;9.162;2023-04-24T03:38:27;2.87;;;0.80;;
35540;SDS011;21650;48.840;9.162;2023-04-24T03:40:53;1.77;;;0.70;;
35540;SDS011;21650;48.840;9.162;2023-04-24T03:43:19;2.97;;;0.60;;
35540;SDS011;21650;48.840;9.162;2023-04-24T03:45:44;3.33;;;0.83;;
35540;SDS011;21650;48.840;9.162;2023-04-24T03:48:10;1.30;;;0.80;;
35540;SDS011;21650;48.840;9.162;2023-04-24T03:50:35;1.13;;;0.77;;
35540;SDS011;21650;48.840;9.162;2023-04-24T03:53:01;2.27;;;0.77;;
35540;SDS011;21650;48.840;9.162;2023-04-24T03:55:27;0.70;;;0.60;;
35540;SDS011;21650;48.840;9.162;2023-04-24T03:57:52;4.13;;;0.83;;
35540;SDS011;21650;48.840;9.162;2023-04-24T04:00:18;2.40;;;0.60;;
35540;SDS011;21650;48.840;9.162;2023-04-24T04:02:44;3.93;;;0.70;;
35540;SDS011;21650;48.840;9.162;2023-04-24T04:05:10;0.87;;;0.80;;
35540;SDS011;21650;48.840;9.162;2023-04-24T04:07:35;2.67;;;0.60;;
35540;SDS011;21650;48.840;9.162;2023-04-24T04:10:01;1.77;;;0.70;;
35540;SDS011;21650;48.840;9.162;2023-04-24T04:12:27;1.97;;;0.80;;
35540;SDS011;21650;48.840;9.162;2023-04-24T04:14:52;2.07;;;0.60;;
35540;SDS011;21650;48.840;9.162;2023-04-24T04:17:18;2.27;;;1.00;;
35540;SDS011;21650;48.840;9.162;2023-04-24T04:19:43;1.50;;;0.77;;
35540;SDS011;21650;48.840;9.162;2023-04-24T04:22:09;0.63;;;0.63;;
35540;SDS011;21650;48.840;9.162;2023-04-24T04:24:35;2.87;;;1.73;;
35540;SDS011;21650;48.840;9.162;2023-04-24T04:27:03;1.33;;;1.00;;
35540;SDS011;21650;48.840;9.162;2023-04-24T04:29:30;3.40;;;0.80;;
35540;SDS011;21650;48.840;9.162;2023-04-24T04:31:56;1.80;;;0.87;;
35540;SDS011;21650;48.840;9.162;2023-04-24T04:34:22;1.90;;;0.80;;
35540;SDS011;21650;48.840;9.162;2023-04-24T04:36:48;3.80;;;1.33;;
35540;SDS011;21650;48.840;9.162;2023-04-24T04:39:13;2.67;;;1.20;;
35540;SDS011;21650;48.840;9.162;2023-04-24T04:41:40;3.73;;;0.97;;
35540;SDS011;21650;48.840;9.162;2023-04-24T04:44:06;1.93;;;1.07;;
35540;SDS011;21650;48.840;9.162;2023-04-24T04:46:33;1.17;;;1.07;;
35540;SDS011;21650;48.840;9.162;2023-04-24T04:49:00;2.70;;;1.30;;
35540;SDS011;21650;48.840;9.162;2023-04-24T04:51:27;6.63;;;1.30;;
35540;SDS011;21650;48.840;9.162;2023-04-24T04:53:53;1.47;;;0.97;;
35540;SDS011;21650;48.840;9.162;2023-04-24T04:56:19;2.23;;;1.13;;
35540;SDS011;21650;48.840;9.162;2023-04-24T04:58:44;1.50;;;1.17;;
35540;SDS011;21650;48.840;9.162;2023-04-24T05:01:10;3.37;;;1.20;;
35540;SDS011;21650;48.840;9.162;2023-04-24T05:03:35;5.83;;;1.30;;
35540;SDS011;21650;48.840;9.162;2023-04-24T05:06:01;1.83;;;0.93;;
35540;SDS011;21650;48.840;9.162;2023-04-24T05:08:27;3.33;;;1.27;;
35540;SDS011;21650;48.840;9.162;2023-04-24T05:10:53;1.73;;;1.53;;
35540;SDS011;21650;48.840;9.162;2023-04-24T05:13:20;2.43;;;1.40;;
35540;SDS011;21650;48.840;9.162;2023-04-24T05:15:45;1.60;;;1.50;;
35540;SDS011;21650;48.840;9.162;2023-04-24T05:18:11;1.93;;;1.07;;
35540;SDS011;21650;48.840;9.162;2023-04-24T05:20:37;2.30;;;1.13;;
35540;SDS011;21650;48.840;9.162;2023-04-24T05:23:02;1.20;;;1.10;;
35540;SDS011;21650;48.840;9.162;2023-04-24T05:25:28;2.93;;;1.00;;
35540;SDS011;21650;48.840;9.162;2023-04-24T05:27:54;1.50;;;1.10;;
35540;SDS011;21650;48.840;9.162;2023-04-24T05:30:19;1.37;;;0.90;;
35540;SDS011;21650;48.840;9.162;2023-04-24T05:32:45;1.60;;;1.20;;
35540;SDS011;21650;48.840;9.162;2023-04-24T05:35:11;1.67;;;1.30;;
35540;SDS011;21650;48.840;9.162;2023-04-24T05:37:36;1.83;;;1.33;;
35540;SDS011;21650;48.840;9.162;2023-04-24T05:40:02;1.53;;;1.33;;
35540;SDS011;21650;48.840;9.162;2023-04-24T05:42:30;2.30;;;1.37;;
35540;SDS011;21650;48.840;9.162;2023-04-24T05:44:56;2.80;;;1.20;;
35540;SDS011;21650;48.840;9.162;2023-04-24T05:47:21;1.27;;;1.17;;
35540;SDS011;21650;48.840;9.162;2023-04-24T05:49:47;1.30;;;1.10;;
35540;SDS011;21650;48.840;9.162;2023-04-24T05:52:13;1.60;;;1.17;;
35540;SDS011;21650;48.840;9.162;2023-04-24T05:54:38;2.90;;;1.40;;
35540;SDS011;21650;48.840;9.162;2023-04-24T05:57:04;2.07;;;1.40;;
35540;SDS011;21650;48.840;9.162;2023-04-24T05:59:33;1.63;;;1.33;;
35540;SDS011;21650;48.840;9.162;2023-04-24T06:02:02;2.03;;;1.40;;
35540;SDS011;21650;48.840;9.162;2023-04-24T06:04:28;1.63;;;1.43;;
35540;SDS011;21650;48.840;9.162;2023-04-24T06:06:53;2.27;;;1.50;;
35540;SDS011;21650;48.840;9.162;2023-04-24T06:09:24;1.80;;;1.70;;
35540;SDS011;21650;48.840;9.162;2023-04-24T06:11:50;2.57;;;1.40;;
35540;SDS011;21650;48.840;9.162;2023-04-24T06:14:18;1.57;;;1.30;;
35540;SDS011;21650;48.840;9.162;2023-04-24T06:16:44;3.20;;;1.70;;
35540;SDS011;21650;48.840;9.162;2023-04-24T06:19:10;3.53;;;1.50;;
35540;SDS011;21650;48.840;9.162;2023-04-24T06:21:35;2.77;;;1.67;;
35540;SDS011;21650;48.840;9.162;2023-04-24T06:24:01;2.53;;;1.90;;
35540;SDS011;21650;48.840;9.162;2023-04-24T06:26:29;2.60;;;2.00;;
35540;SDS011;21650;48.840;9.162;2023-04-24T06:28:55;1.90;;;1.70;;
35540;SDS011;21650;48.840;9.162;2023-04-24T06:31:20;2.40;;;1.90;;
35540;SDS011;21650;48.840;9.162;2023-04-24T06:33:46;4.80;;;2.10;;
35540;SDS011;21650;48.840;9.162;2023-04-24T06:36:12;2.30;;;1.37;;
35540;SDS011;21650;48.840;9.162;2023-04-24T06:38:38;3.37;;;2.37;;
35540;SDS011;21650;48.840;9.162;2023-04-24T06:41:04;4.43;;;1.90;;
35540;SDS011;21650;48.840;9.162;2023-04-24T06:43:30;2.87;;;2.40;;
35540;SDS011;21650;48.840;9.162;2023-04-24T06:45:57;4.83;;;1.87;;
35540;SDS011;21650;48.840;9.162;2023-04-24T06:48:23;1.63;;;1.53;;
35540;SDS011;21650;48.840;9.162;2023-04-24T06:50:50;4.47;;;1.93;;
35540;SDS011;21650;48.840;9.162;2023-04-24T06:53:15;4.23;;;2.00;;
35540;SDS011;21650;48.840;9.162;2023-04-24T06:55:41;4.30;;;1.80;;
35540;SDS011;21650;48.840;9.162;2023-04-24T06:58:08;1.70;;;1.57;;
35540;SDS011;21650;48.840;9.162;2023-04-24T07:00:34;3.37;;;1.73;;
35540;SDS011;21650;48.840;9.162;2023-04-24T07:03:00;4.30;;;2.60;;
35540;SDS011;21650;48.840;9.162;2023-04-24T07:05:25;3.23;;;2.60;;
35540;SDS011;21650;48.840;9.162;2023-04-24T07:07:51;2.63;;;2.27;;
35540;SDS011;21650;48.840;9.162;2023-04-24T07:10:16;2.13;;;1.90;;
35540;SDS011;21650;48.840;9.162;2023-04-24T07:12:43;2.20;;;1.90;;
35540;SDS011;21650;48.840;9.162;2023-04-24T07:15:08;7.47;;;2.23;;
35540;SDS011;21650;48.840;9.162;2023-04-24T07:17:35;1.77;;;1.67;;
35540;SDS011;21650;48.840;9.162;2023-04-24T07:20:03;1.77;;;1.10;;
35540;SDS011;21650;48.840;9.162;2023-04-24T07:22:29;4.87;;;1.60;;
35540;SDS011;21650;48.840;9.162;2023-04-24T07:24:55;3.80;;;1.50;;
35540;SDS011;21650;48.840;9.162;2023-04-24T07:27:20;2.60;;;1.43;;
35540;SDS011;21650;48.840;9.162;2023-04-24T07:29:46;4.70;;;1.90;;
35540;SDS011;21650;48.840;9.162;2023-04-24T07:32:12;3.20;;;1.40;;
35540;SDS011;21650;48.840;9.162;2023-04-24T07:34:37;1.90;;;1.50;;
35540;SDS011;21650;48.840;9.162;2023-04-24T07:37:03;2.80;;;1.40;;
35540;SDS011;21650;48.840;9.162;2023-04-24T07:39:29;3.00;;;1.47;;
35540;SDS011;21650;48.840;9.162;2023-04-24T07:41:54;3.10;;;1.77;;
35540;SDS011;21650;48.840;9.162;2023-04-24T07:44:20;1.40;;;1.30;;
35540;SDS011;21650;48.840;9.162;2023-04-24T07:46:45;2.03;;;1.37;;
35540;SDS011;21650;48.840;9.162;2023-04-24T07:49:12;1.43;;;1.20;;
35540;SDS011;21650;48.840;9.162;2023-04-24T07:51:37;2.60;;;1.47;;
35540;SDS011;21650;48.840;9.162;2023-04-24T07:54:04;1.83;;;1.20;;
35540;SDS011;21650;48.840;9.162;2023-04-24T07:56:33;3.00;;;1.30;;
35540;SDS011;21650;48.840;9.162;2023-04-24T07:58:59;2.83;;;1.27;;
35540;SDS011;21650;48.840;9.162;2023-04-24T08:01:26;1.50;;;1.20;;
35540;SDS011;21650;48.840;9.162;2023-04-24T08:03:52;2.37;;;1.50;;
35540;SDS011;21650;48.840;9.162;2023-04-24T08:06:17;1.77;;;1.57;;
35540;SDS011;21650;48.840;9.162;2023-04-24T08:08:43;6.77;;;1.60;;
35540;SDS011;21650;48.840;9.162;2023-04-24T08:11:09;2.70;;;1.87;;
35540;SDS011;21650;48.840;9.162;2023-04-24T08:13:34;1.27;;;1.10;;
35540;SDS011;21650;48.840;9.162;2023-04-24T08:16:00;2.20;;;1.40;;
35540;SDS011;21650;48.840;9.162;2023-04-24T08:18:25;1.70;;;1.60;;
35540;SDS011;21650;48.840;9.162;2023-04-24T08:20:51;2.13;;;1.80;;
35540;SDS011;21650;48.840;9.162;2023-04-24T08:23:17;2.20;;;1.60;;
35540;SDS011;21650;48.840;9.162;2023-04-24T08:25:42;1.50;;;1.40;;
35540;SDS011;21650;48.840;9.162;2023-04-24T08:28:08;4.30;;;1.53;;
35540;SDS011;21650;48.840;9.162;2023-04-24T08:30:35;4.27;;;1.40;;
35540;SDS011;21650;48.840;9.162;2023-04-24T08:33:01;1.80;;;1.50;;
35540;SDS011;21650;48.840;9.162;2023-04-24T08:35:27;2.23;;;1.43;;
35540;SDS011;21650;48.840;9.162;2023-04-24T08:37:53;3.53;;;1.40;;
35540;SDS011;21650;48.840;9.162;2023-04-24T08:40:18;1.90;;;1.53;;
35540;SDS011;21650;48.840;9.162;2023-04-24T08:42:53;2.57;;;1.60;;
35540;SDS011;21650;48.840;9.162;2023-04-24T08:45:21;2.97;;;1.53;;
35540;SDS011;21650;48.840;9.162;2023-04-24T08:47:48;2.17;;;1.20;;
35540;SDS011;21650;48.840;9.162;2023-04-24T08:50:14;1.83;;;1.63;;
35540;SDS011;21650;48.840;9.162;2023-04-24T08:52:41;1.43;;;1.33;;
35540;SDS011;21650;48.840;9.162;2023-04-24T08:55:07;1.97;;;1.53;;
35540;SDS011;21650;48.840;9.162;2023-04-24T08:57:33;1.87;;;1.57;;
35540;SDS011;21650;48.840;9.162;2023-04-24T09:00:00;1.63;;;1.33;;
35540;SDS011;21650;48.840;9.162;2023-04-24T09:02:26;2.57;;;1.73;;
35540;SDS011;21650;48.840;9.162;2023-04-24T09:04:53;1.37;;;1.27;;
35540;SDS011;21650;48.840;9.162;2023-04-24T09:07:22;3.10;;;1.50;;
35540;SDS011;21650;48.840;9.162;2023-04-24T09:09:50;1.57;;;1.30;;
35540;SDS011;21650;48.840;9.162;2023-04-24T09:12:16;5.63;;;1.60;;
35540;SDS011;21650;48.840;9.162;2023-04-24T09:14:42;3.43;;;1.40;;
35540;SDS011;21650;48.840;9.162;2023-04-24T09:17:10;4.33;;;1.50;;
35540;SDS011;21650;48.840;9.162;2023-04-24T09:19:36;5.23;;;1.20;;
35540;SDS011;21650;48.840;9.162;2023-04-24T09:22:05;4.37;;;1.40;;
35540;SDS011;21650;48.840;9.162;2023-04-24T09:24:31;3.93;;;1.43;;
35540;SDS011;21650;48.840;9.162;2023-04-24T09:26:58;1.70;;;1.40;;
35540;SDS011;21650;48.840;9.162;2023-04-24T09:29:26;2.67;;;1.47;;
35540;SDS011;21650;48.840;9.162;2023-04-24T09:31:52;1.30;;;1.20;;
35540;SDS011;21650;48.840;9.162;2023-04-24T09:34:25;2.90;;;1.43;;
35540;SDS011;21650;48.840;9.162;2023-04-24T09:36:51;1.90;;;1.13;;
35540;SDS011;21650;48.840;9.162;2023-04-24T09:39:18;1.40;;;1.30;;
35540;SDS011;21650;48.840;9.162;2023-04-24T09:41:48;2.20;;;1.43;;
35540;SDS011;21650;48.840;9.162;2023-04-24T09:44:18;3.57;;;1.83;;
35540;SDS011;21650;48.840;9.162;2023-04-24T09:46:50;1.77;;;1.23;;
35540;SDS011;21650;48.840;9.162;2023-04-24T09:49:24;5.77;;;1.23;;
35540;SDS011;21650;48.840;9.162;2023-04-24T09:51:49;1.30;;;1.10;;
35540;SDS011;21650;48.840;9.162;2023-04-24T09:54:16;1.90;;;1.20;;
35540;SDS011;21650;48.840;9.162;2023-04-24T09:56:44;1.10;;;1.00;;
35540;SDS011;21650;48.840;9.162;2023-04-24T09:59:11;1.50;;;1.17;;
35540;SDS011;21650;48.840;9.162;2023-04-24T10:01:38;1.13;;;0.97;;
35540;SDS011;21650;48.840;9.162;2023-04-24T10:04:14;1.30;;;1.10;;
35540;SDS011;21650;48.840;9.162;2023-04-24T10:06:44;2.43;;;1.20;;
35540;SDS011;21650;48.840;9.162;2023-04-24T10:09:10;1.27;;;1.17;;
35540;SDS011;21650;48.840;9.162;2023-04-24T10:11:37;2.83;;;1.27;;
35540;SDS011;21650;48.840;9.162;2023-04-24T10:14:08;4.30;;;1.10;;
35540;SDS011;21650;48.840;9.162;2023-04-24T10:16:35;2.23;;;1.30;;
35540;SDS011;21650;48.840;9.162;2023-04-24T10:19:02;2.63;;;0.90;;
35540;SDS011;21650;48.840;9.162;2023-04-24T10:21:28;1.80;;;0.97;;
35540;SDS011;21650;48.840;9.162;2023-04-24T10:23:55;2.50;;;1.07;;
35540;SDS011;21650;48.840;9.162;2023-04-24T10:26:21;1.47;;;1.00;;
35540;SDS011;21650;48.840;9.162;2023-04-24T10:28:47;1.23;;;1.00;;
35540;SDS011;21650;48.840;9.162;2023-04-24T10:31:13;1.70;;;1.50;;
35540;SDS011;21650;48.840;9.162;2023-04-24T10:33:40;3.30;;;1.30;;
35540;SDS011;21650;48.840;9.162;2023-04-24T10:36:07;1.50;;;1.37;;
35540;SDS011;21650;48.840;9.162;2023-04-24T10:38:34;1.80;;;1.33;;
35540;SDS011;21650;48.840;9.162;2023-04-24T10:41:08;1.33;;;1.00;;
35540;SDS011;21650;48.840;9.162;2023-04-24T10:43:39;1.27;;;1.00;;
35540;SDS011;21650;48.840;9.162;2023-04-24T10:46:05;3.97;;;1.20;;
35540;SDS011;21650;48.840;9.162;2023-04-24T10:48:32;1.93;;;1.10;;
35540;SDS011;21650;48.840;9.162;2023-04-24T10:50:58;1.83;;;1.00;;
35540;SDS011;21650;48.840;9.162;2023-04-24T10:53:25;2.07;;;1.17;;
35540;SDS011;21650;48.840;9.162;2023-04-24T10:56:02;3.30;;;1.47;;
35540;SDS011;21650;48.840;9.162;2023-04-24T10:58:41;2.67;;;1.20;;
35540;SDS011;21650;48.840;9.162;2023-04-24T11:01:22;2.00;;;1.37;;
35540;SDS011;21650;48.840;9.162;2023-04-24T11:03:56;1.27;;;1.17;;
35540;SDS011;21650;48.840;9.162;2023-04-24T11:06:29;1.30;;;1.20;;
35540;SDS011;21650;48.840;9.162;2023-04-24T11:09:03;1.60;;;1.07;;
35540;SDS011;21650;48.840;9.162;2023-04-24T11:11:31;1.80;;;1.47;;
35540;SDS011;21650;48.840;9.162;2023-04-24T11:16:26;4.27;;;1.50;;
35540;SDS011;21650;48.840;9.162;2023-04-24T11:21:42;1.20;;;1.10;;
35540;SDS011;21650;48.840;9.162;2023-04-24T11:27:12;3.33;;;1.10;;
35540;SDS011;21650;48.840;9.162;2023-04-24T11:32:26;1.43;;;1.27;;
35540;SDS011;21650;48.840;9.162;2023-04-24T11:34:56;2.17;;;1.50;;
35540;SDS011;21650;48.840;9.162;2023-04-24T11:37:23;2.23;;;1.60;;
35540;SDS011;21650;48.840;9.162;2023-04-24T11:39:52;3.00;;;1.43;;
35540;SDS011;21650;48.840;9.162;2023-04-24T11:42:19;2.77;;;1.30;;
35540;SDS011;21650;48.840;9.162;2023-04-24T11:44:46;2.17;;;1.20;;
35540;SDS011;21650;48.840;9.162;2023-04-24T11:47:14;2.77;;;1.37;;
35540;SDS011;21650;48.840;9.162;2023-04-24T11:49:40;4.30;;;1.13;;
35540;SDS011;21650;48.840;9.162;2023-04-24T11:52:05;2.30;;;1.20;;
35540;SDS011;21650;48.840;9.162;2023-04-24T11:54:31;1.30;;;1.20;;
35540;SDS011;21650;48.840;9.162;2023-04-24T11:56:57;0.77;;;0.77;;
35540;SDS011;21650;48.840;9.162;2023-04-24T11:59:23;1.17;;;1.00;;
35540;SDS011;21650;48.840;9.162;2023-04-24T12:01:48;2.50;;;1.30;;
35540;SDS011;21650;48.840;9.162;2023-04-24T12:04:15;1.30;;;0.90;;
35540;SDS011;21650;48.840;9.162;2023-04-24T12:09:26;1.20;;;1.10;;
35540;SDS011;21650;48.840;9.162;2023-04-24T12:11:53;3.03;;;1.60;;
35540;SDS011;21650;48.840;9.162;2023-04-24T12:14:22;3.43;;;1.63;;
35540;SDS011;21650;48.840;9.162;2023-04-24T12:16:48;2.20;;;1.27;;
35540;SDS011;21650;48.840;9.162;2023-04-24T12:19:20;1.70;;;1.30;;
35540;SDS011;21650;48.840;9.162;2023-04-24T12:21:58;2.87;;;1.50;;
35540;SDS011;21650;48.840;9.162;2023-04-24T12:24:28;2.63;;;1.00;;
35540;SDS011;21650;48.840;9.162;2023-04-24T12:26:55;3.03;;;1.40;;
35540;SDS011;21650;48.840;9.162;2023-04-24T12:29:21;4.13;;;1.20;;
35540;SDS011;21650;48.840;9.162;2023-04-24T12:31:47;1.40;;;1.30;;
35540;SDS011;21650;48.840;9.162;2023-04-24T12:34:20;3.60;;;1.37;;
35540;SDS011;21650;48.840;9.162;2023-04-24T12:36:47;3.73;;;1.30;;
35540;SDS011;21650;48.840;9.162;2023-04-24T12:39:16;2.40;;;1.57;;
35540;SDS011;21650;48.840;9.162;2023-04-24T12:41:55;1.50;;;0.93;;
35540;SDS011;21650;48.840;9.162;2023-04-24T12:44:32;5.00;;;1.30;;
35540;SDS011;21650;48.840;9.162;2023-04-24T12:46:59;0.83;;;0.80;;
35540;SDS011;21650;48.840;9.162;2023-04-24T12:49:25;1.20;;;1.07;;
35540;SDS011;21650;48.840;9.162;2023-04-24T12:51:51;4.93;;;1.30;;
35540;SDS011;21650;48.840;9.162;2023-04-24T12:54:17;1.83;;;1.10;;
35540;SDS011;21650;48.840;9.162;2023-04-24T12:56:43;1.97;;;1.20;;
35540;SDS011;21650;48.840;9.162;2023-04-24T12:59:09;1.60;;;1.50;;
35540;SDS011;21650;48.840;9.162;2023-04-24T13:01:34;2.33;;;1.30;;
35540;SDS011;21650;48.840;9.162;2023-04-24T13:04:00;1.10;;;1.00;;
35540;SDS011;21650;48.840;9.162;2023-04-24T13:06:25;1.70;;;0.90;;
35540;SDS011;21650;48.840;9.162;2023-04-24T13:08:51;1.00;;;0.90;;
35540;SDS011;21650;48.840;9.162;2023-04-24T13:11:17;0.90;;;0.80;;
35540;SDS011;21650;48.840;9.162;2023-04-24T13:13:43;3.57;;;1.03;;
35540;SDS011;21650;48.840;9.162;2023-04-24T13:16:08;1.43;;;1.33;;
35540;SDS011;21650;48.840;9.162;2023-04-24T13:18:34;1.60;;;1.50;;
35540;SDS011;21650;48.840;9.162;2023-04-24T13:21:00;1.50;;;1.10;;
35540;SDS011;21650;48.840;9.162;2023-04-24T13:23:25;2.53;;;1.73;;
35540;SDS011;21650;48.840;9.162;2023-04-24T13:25:51;1.97;;;1.43;;
35540;SDS011;21650;48.840;9.162;2023-04-24T13:28:16;4.07;;;1.63;;
35540;SDS011;21650;48.840;9.162;2023-04-24T13:30:42;2.03;;;1.60;;
35540;SDS011;21650;48.840;9.162;2023-04-24T13:33:08;1.87;;;1.50;;
35540;SDS011;21650;48.840;9.162;2023-04-24T13:35:34;3.30;;;2.10;;
35540;SDS011;21650;48.840;9.162;2023-04-24T13:37:59;2.10;;;1.90;;
35540;SDS011;21650;48.840;9.162;2023-04-24T13:40:26;4.27;;;1.80;;
35540;SDS011;21650;48.840;9.162;2023-04-24T13:42:52;3.03;;;1.77;;
35540;SDS011;21650;48.840;9.162;2023-04-24T13:45:17;1.83;;;1.47;;
35540;SDS011;21650;48.840;9.162;2023-04-24T13:47:43;3.67;;;1.70;;
35540;SDS011;21650;48.840;9.162;2023-04-24T13:50:09;2.23;;;1.70;;
35540;SDS011;21650;48.840;9.162;2023-04-24T13:52:35;1.90;;;1.20;;
35540;SDS011;21650;48.840;9.162;2023-04-24T13:55:00;2.23;;;1.50;;
35540;SDS011;21650;48.840;9.162;2023-04-24T13:57:26;2.10;;;1.20;;
35540;SDS011;21650;48.840;9.162;2023-04-24T13:59:53;1.63;;;1.13;;
35540;SDS011;21650;48.840;9.162;2023-04-24T14:02:20;1.87;;;1.23;;
35540;SDS011;21650;48.840;9.162;2023-04-24T14:04:46;7.13;;;1.97;;
35540;SDS011;21650;48.840;9.162;2023-04-24T14:07:13;4.33;;;1.90;;
35540;SDS011;21650;48.840;9.162;2023-04-24T14:09:38;2.33;;;1.83;;
35540;SDS011;21650;48.840;9.162;2023-04-24T14:12:04;2.43;;;1.33;;
35540;SDS011;21650;48.840;9.162;2023-04-24T14:14:30;2.23;;;1.17;;
35540;SDS011;21650;48.840;9.162;2023-04-24T14:16:56;3.53;;;1.50;;
35540;SDS011;21650;48.840;9.162;2023-04-24T14:19:22;3.57;;;1.40;;
35540;SDS011;21650;48.840;9.162;2023-04-24T14:21:48;1.60;;;1.50;;
35540;SDS011;21650;48.840;9.162;2023-04-24T14:24:14;5.40;;;1.53;;
35540;SDS011;21650;48.840;9.162;2023-04-24T14:26:40;2.20;;;1.70;;
35540;SDS011;21650;48.840;9.162;2023-04-24T14:29:06;1.73;;;1.33;;
35540;SDS011;21650;48.840;9.162;2023-04-24T14:31:31;1.70;;;1.30;;
35540;SDS011;21650;48.840;9.162;2023-04-24T14:33:57;2.97;;;1.60;;
35540;SDS011;21650;48.840;9.162;2023-04-24T14:36:23;1.87;;;1.40;;
35540;SDS011;21650;48.840;9.162;2023-04-24T14:38:49;2.00;;;1.60;;
35540;SDS011;21650;48.840;9.162;2023-04-24T14:41:15;4.53;;;1.60;;
35540;SDS011;21650;48.840;9.162;2023-04-24T14:43:41;2.47;;;1.90;;
35540;SDS011;21650;48.840;9.162;2023-04-24T14:46:07;1.60;;;1.50;;
35540;SDS011;21650;48.840;9.162;2023-04-24T14:48:32;2.80;;;1.70;;
35540;SDS011;21650;48.840;9.162;2023-04-24T14:50:58;1.50;;;1.40;;
35540;SDS011;21650;48.840;9.162;2023-04-24T14:53:23;2.00;;;1.60;;
35540;SDS011;21650;48.840;9.162;2023-04-24T14:55:49;5.83;;;1.70;;
35540;SDS011;21650;48.840;9.162;2023-04-24T14:58:15;2.90;;;1.80;;